createdAt,value
2023-04-20T00:01:47.828Z,18.10
2023-04-20T00:04:16.280Z,17.30
2023-04-20T00:06:44.326Z,18.37
2023-04-20T00:09:15.016Z,17.77
2023-04-20T00:11:42.675Z,16.53
2023-04-20T00:14:10.119Z,17.30
2023-04-20T00:16:37.678Z,16.17
2023-04-20T00:19:05.162Z,18.77
2023-04-20T00:21:32.688Z,17.40
2023-04-20T00:24:00.550Z,16.87
2023-04-20T00:26:28.264Z,16.50
2023-04-20T00:28:55.731Z,16.70
2023-04-20T00:31:23.303Z,16.20
2023-04-20T00:33:51.088Z,17.27
2023-04-20T00:36:18.660Z,17.17
2023-04-20T00:38:46.311Z,17.93
2023-04-20T00:41:13.967Z,17.23
2023-04-20T00:43:54.499Z,16.87
2023-04-20T00:46:22.694Z,16.23
2023-04-20T00:48:54.178Z,16.70
2023-04-20T00:51:23.057Z,16.17
2023-04-20T00:53:50.760Z,14.60
2023-04-20T00:56:19.561Z,14.80
2023-04-20T00:58:47.371Z,14.30
2023-04-20T01:01:17.959Z,14.83
2023-04-20T01:03:46.014Z,15.23
2023-04-20T01:06:17.958Z,14.83
2023-04-20T01:08:52.369Z,14.40
2023-04-20T01:11:19.927Z,14.70
2023-04-20T01:13:47.448Z,15.63
2023-04-20T01:16:15.053Z,15.97
2023-04-20T01:18:49.272Z,15.63
2023-04-20T01:21:21.671Z,16.33
2023-04-20T01:23:49.580Z,15.10
2023-04-20T01:26:19.413Z,16.13
2023-04-20T01:28:46.981Z,17.03
2023-04-20T01:31:14.879Z,16.73
2023-04-20T01:33:42.351Z,17.07
2023-04-20T01:36:10.860Z,16.73
2023-04-20T01:38:38.635Z,16.87
2023-04-20T01:41:09.692Z,16.43
2023-04-20T01:43:38.897Z,17.17
2023-04-20T01:46:07.552Z,16.47
2023-04-20T01:48:35.265Z,17.03
2023-04-20T01:51:03.054Z,17.17
2023-04-20T01:53:30.618Z,18.37
2023-04-20T01:56:00.161Z,18.00
2023-04-20T01:58:27.796Z,20.90
2023-04-20T02:00:55.318Z,23.27
2023-04-20T02:03:23.060Z,24.13
2023-04-20T02:05:51.110Z,25.80
2023-04-20T02:08:18.672Z,26.50
2023-04-20T02:10:46.299Z,26.77
2023-04-20T02:13:13.734Z,26.60
2023-04-20T02:15:41.296Z,24.13
2023-04-20T02:18:09.187Z,24.87
2023-04-20T02:20:36.705Z,24.77
2023-04-20T02:23:04.241Z,26.47
2023-04-20T02:25:31.829Z,25.93
2023-04-20T02:27:59.699Z,25.20
2023-04-20T02:30:27.390Z,25.67
2023-04-20T02:32:54.893Z,24.10
2023-04-20T02:35:22.527Z,23.63
2023-04-20T02:37:50.134Z,24.00
2023-04-20T02:40:17.706Z,22.30
2023-04-20T02:42:45.332Z,22.67
2023-04-20T02:45:12.988Z,22.47
2023-04-20T02:47:40.574Z,20.50
2023-04-20T02:50:09.754Z,20.50
2023-04-20T02:52:37.344Z,20.07
2023-04-20T02:55:05.318Z,19.80
2023-04-20T02:57:32.873Z,20.40
2023-04-20T03:00:00.373Z,21.33
2023-04-20T03:02:28.213Z,20.77
2023-04-20T03:04:55.867Z,20.83
2023-04-20T03:07:24.108Z,21.10
2023-04-20T03:09:51.734Z,21.63
2023-04-20T03:12:19.206Z,22.17
2023-04-20T03:14:46.647Z,22.40
2023-04-20T03:17:14.233Z,21.53
2023-04-20T03:19:41.822Z,21.73
2023-04-20T03:22:09.292Z,22.83
2023-04-20T03:24:36.919Z,22.93
2023-04-20T03:27:04.555Z,22.43
2023-04-20T03:29:32.054Z,23.37
2023-04-20T03:31:59.669Z,23.07
2023-04-20T03:34:27.271Z,22.67
2023-04-20T03:36:54.859Z,22.87
2023-04-20T03:39:22.582Z,21.80
2023-04-20T03:41:50.197Z,22.33
2023-04-20T03:44:17.706Z,22.87
2023-04-20T03:46:45.495Z,22.27
2023-04-20T03:49:13.058Z,22.47
2023-04-20T03:51:40.718Z,22.20
2023-04-20T03:54:08.230Z,21.70
2023-04-20T03:56:35.807Z,23.77
2023-04-20T03:59:03.342Z,22.27
2023-04-20T04:01:32.038Z,22.57
2023-04-20T04:03:59.922Z,24.23
2023-04-20T04:06:27.733Z,22.90
2023-04-20T04:08:55.221Z,23.33
2023-04-20T04:11:22.665Z,23.67
2023-04-20T04:13:50.312Z,23.67
2023-04-20T04:16:17.767Z,23.90
2023-04-20T04:18:45.716Z,25.10
2023-04-20T04:21:13.671Z,25.03
2023-04-20T04:23:42.654Z,24.40
2023-04-20T04:26:10.392Z,24.93
2023-04-20T04:28:37.965Z,24.67
2023-04-20T04:31:08.643Z,26.53
2023-04-20T04:33:36.208Z,30.90
2023-04-20T04:36:04.875Z,29.83
2023-04-20T04:38:33.571Z,28.50
2023-04-20T04:41:01.120Z,31.50
2023-04-20T04:43:28.644Z,31.20
2023-04-20T04:45:58.589Z,31.30
2023-04-20T04:48:26.358Z,30.67
2023-04-20T04:50:53.861Z,31.50
2023-04-20T04:53:21.379Z,32.37
2023-04-20T04:55:48.850Z,31.47
2023-04-20T04:58:16.305Z,31.87
2023-04-20T05:00:43.874Z,32.40
2023-04-20T05:03:11.476Z,31.83
2023-04-20T05:05:39.057Z,31.53
2023-04-20T05:08:06.599Z,30.60
2023-04-20T05:10:34.208Z,32.60
2023-04-20T05:13:01.817Z,31.27
2023-04-20T05:15:29.543Z,30.83
2023-04-20T05:17:57.094Z,30.33
2023-04-20T05:20:24.684Z,28.73
2023-04-20T05:22:52.249Z,28.47
2023-04-20T05:25:19.747Z,29.37
2023-04-20T05:27:47.505Z,29.73
2023-04-20T05:30:21.552Z,27.90
2023-04-20T05:32:52.260Z,30.50
2023-04-20T05:35:21.824Z,27.17
2023-04-20T05:37:49.532Z,26.13
2023-04-20T05:40:17.433Z,27.67
2023-04-20T05:42:44.943Z,28.10
2023-04-20T05:45:12.866Z,29.17
2023-04-20T05:47:40.533Z,28.13
2023-04-20T05:50:09.793Z,30.00
2023-04-20T05:52:37.544Z,30.23
2023-04-20T05:55:05.664Z,34.47
2023-04-20T05:57:33.158Z,29.53
2023-04-20T06:00:00.810Z,31.87
2023-04-20T06:02:28.342Z,29.60
2023-04-20T06:04:56.046Z,32.70
2023-04-20T06:07:23.586Z,32.07
2023-04-20T06:09:51.124Z,31.37
2023-04-20T06:12:18.644Z,30.37
2023-04-20T06:14:46.285Z,32.70
2023-04-20T06:17:13.823Z,32.63
2023-04-20T06:19:41.438Z,32.17
2023-04-20T06:22:09.568Z,31.47
2023-04-20T06:24:38.833Z,32.53
2023-04-20T06:27:06.639Z,32.00
2023-04-20T06:29:34.147Z,32.27
2023-04-20T06:32:01.858Z,36.37
2023-04-20T06:34:29.321Z,33.33
2023-04-20T06:36:56.871Z,32.40
2023-04-20T06:39:24.640Z,37.80
2023-04-20T06:41:52.132Z,43.87
2023-04-20T06:44:19.627Z,44.93
2023-04-20T06:46:47.182Z,31.43
2023-04-20T06:49:14.831Z,37.93
2023-04-20T06:51:42.305Z,34.73
2023-04-20T06:54:10.395Z,32.43
2023-04-20T06:56:37.862Z,32.33
2023-04-20T06:59:05.576Z,29.40
2023-04-20T07:01:33.102Z,27.00
2023-04-20T07:04:01.540Z,28.97
2023-04-20T07:06:29.310Z,30.70
2023-04-20T07:08:57.266Z,27.43
2023-04-20T07:11:25.800Z,27.20
2023-04-20T07:13:53.404Z,28.87
2023-04-20T07:16:21.023Z,27.77
2023-04-20T07:18:48.534Z,30.47
2023-04-20T07:21:16.346Z,28.70
2023-04-20T07:23:45.240Z,29.03
2023-04-20T07:26:12.840Z,30.53
2023-04-20T07:28:41.142Z,29.47
2023-04-20T07:31:08.772Z,29.70
2023-04-20T07:33:36.415Z,32.43
2023-04-20T07:36:04.948Z,31.90
2023-04-20T07:38:32.717Z,30.60
2023-04-20T07:41:00.292Z,31.40
2023-04-20T07:43:27.836Z,29.80
2023-04-20T07:45:55.495Z,26.83
2023-04-20T07:48:23.029Z,28.63
2023-04-20T07:50:50.810Z,30.33
2023-04-20T07:53:18.417Z,25.93
2023-04-20T07:55:45.880Z,27.27
2023-04-20T07:58:16.610Z,27.60
2023-04-20T08:00:47.549Z,27.60
2023-04-20T08:03:16.092Z,29.37
2023-04-20T08:05:43.975Z,28.17
2023-04-20T08:08:11.844Z,29.43
2023-04-20T08:10:39.651Z,30.77
2023-04-20T08:13:08.120Z,27.30
2023-04-20T08:15:36.118Z,29.70
2023-04-20T08:18:05.614Z,31.03
2023-04-20T08:23:07.646Z,32.53
2023-04-20T08:25:41.340Z,29.47
2023-04-20T08:28:12.121Z,32.53
2023-04-20T08:30:43.028Z,33.30
2023-04-20T08:33:10.755Z,33.93
2023-04-20T08:35:38.372Z,33.37
2023-04-20T08:38:06.462Z,30.97
2023-04-20T08:40:37.281Z,30.47
2023-04-20T08:43:05.192Z,32.30
2023-04-20T08:45:32.799Z,28.97
2023-04-20T08:48:06.790Z,30.73
2023-04-20T08:50:34.947Z,30.80
2023-04-20T08:53:03.668Z,30.67
2023-04-20T08:55:31.365Z,32.17
2023-04-20T08:57:58.854Z,31.00
2023-04-20T09:00:26.496Z,29.13
2023-04-20T09:02:56.294Z,33.43
2023-04-20T09:05:32.336Z,32.47
2023-04-20T09:08:02.182Z,32.07
2023-04-20T09:10:45.150Z,29.23
2023-04-20T09:13:23.553Z,30.33
2023-04-20T09:15:51.340Z,31.17
2023-04-20T09:18:19.262Z,34.43
2023-04-20T09:20:47.366Z,30.37
2023-04-20T09:23:21.459Z,29.50
2023-04-20T09:25:53.332Z,31.17
2023-04-20T09:28:21.001Z,26.90
2023-04-20T09:30:54.839Z,28.47
2023-04-20T09:33:29.628Z,25.83
2023-04-20T09:36:05.970Z,26.67
2023-04-20T09:38:33.615Z,27.77
2023-04-20T09:41:02.012Z,25.63
2023-04-20T09:43:33.001Z,30.13
2023-04-20T09:46:00.693Z,29.07
2023-04-20T09:48:29.657Z,29.87
2023-04-20T09:51:03.784Z,29.23
2023-04-20T09:53:32.000Z,29.67
2023-04-20T09:56:01.812Z,30.00
2023-04-20T09:58:29.941Z,29.70
2023-04-20T10:00:57.465Z,28.43
2023-04-20T10:03:25.323Z,26.73
2023-04-20T10:05:55.981Z,28.17
2023-04-20T10:08:24.600Z,27.77
2023-04-20T10:10:52.526Z,29.23
2023-04-20T10:13:22.050Z,28.33
2023-04-20T10:15:49.939Z,25.80
2023-04-20T10:18:24.176Z,26.37
2023-04-20T10:20:53.011Z,29.83
2023-04-20T10:23:20.675Z,27.00
2023-04-20T10:26:01.956Z,24.30
2023-04-20T10:28:45.108Z,24.10
2023-04-20T10:31:15.284Z,25.90
2023-04-20T10:33:54.664Z,27.03
2023-04-20T10:36:31.431Z,28.50
2023-04-20T10:39:00.691Z,27.30
2023-04-20T10:41:28.243Z,25.37
2023-04-20T10:43:55.798Z,25.03
2023-04-20T10:46:25.470Z,26.07
2023-04-20T10:48:59.102Z,25.77
2023-04-20T10:51:26.899Z,26.47
2023-04-20T10:54:08.457Z,27.10
2023-04-20T10:56:46.865Z,27.77
2023-04-20T10:59:17.405Z,26.60
2023-04-20T11:01:46.830Z,23.10
2023-04-20T11:04:18.364Z,26.37
2023-04-20T11:06:50.544Z,28.83
2023-04-20T11:09:29.225Z,23.27
2023-04-20T11:12:05.896Z,26.53
2023-04-20T11:14:40.332Z,23.83
2023-04-20T11:17:08.122Z,25.50
2023-04-20T11:19:37.343Z,23.63
2023-04-20T11:22:06.744Z,22.73
2023-04-20T11:24:35.015Z,23.50
2023-04-20T11:27:04.945Z,24.07
2023-04-20T11:29:38.903Z,22.83
2023-04-20T11:32:09.634Z,24.50
2023-04-20T11:34:39.838Z,21.27
2023-04-20T11:37:10.615Z,22.20
2023-04-20T11:39:38.792Z,21.70
2023-04-20T11:42:06.899Z,22.90
2023-04-20T11:44:36.857Z,23.27
2023-04-20T11:47:04.602Z,23.57
2023-04-20T11:49:32.168Z,24.13
2023-04-20T11:51:59.653Z,23.63
2023-04-20T11:54:28.567Z,20.13
2023-04-20T11:56:57.669Z,23.27
2023-04-20T11:59:25.473Z,20.30
2023-04-20T12:01:52.980Z,20.87
2023-04-20T12:04:20.800Z,24.97
2023-04-20T12:06:48.574Z,21.73
2023-04-20T12:09:17.251Z,20.00
2023-04-20T12:11:44.871Z,20.87
2023-04-20T12:14:12.458Z,18.17
2023-04-20T12:16:39.959Z,15.73
2023-04-20T12:19:07.745Z,18.10
2023-04-20T12:21:35.817Z,22.00
2023-04-20T12:24:04.224Z,16.43
2023-04-20T12:26:38.533Z,17.23
2023-04-20T12:29:07.431Z,16.47
2023-04-20T12:31:36.014Z,16.60
2023-04-20T12:34:04.156Z,16.70
2023-04-20T12:36:32.664Z,20.13
2023-04-20T12:39:00.642Z,15.97
2023-04-20T12:41:28.678Z,19.70
2023-04-20T12:43:56.483Z,17.80
2023-04-20T12:46:24.001Z,22.10
2023-04-20T12:48:51.533Z,19.77
2023-04-20T12:51:19.100Z,20.30
2023-04-20T12:53:46.750Z,19.20
2023-04-20T12:56:15.336Z,18.27
2023-04-20T12:58:43.708Z,19.93
2023-04-20T13:01:11.274Z,18.63
2023-04-20T13:03:38.925Z,18.83
2023-04-20T13:06:07.189Z,22.03
2023-04-20T13:08:37.142Z,19.17
2023-04-20T13:11:04.815Z,29.03
2023-04-20T13:13:32.336Z,15.60
2023-04-20T13:15:59.959Z,22.73
2023-04-20T13:18:27.483Z,15.17
2023-04-20T13:20:55.068Z,17.50
2023-04-20T13:23:22.583Z,15.73
2023-04-20T13:25:50.523Z,12.60
2023-04-20T13:28:18.373Z,13.13
2023-04-20T13:30:46.142Z,14.03
2023-04-20T13:33:13.708Z,9.20
2023-04-20T13:35:41.271Z,8.87
2023-04-20T13:38:08.821Z,8.90
2023-04-20T13:40:36.301Z,11.97
2023-04-20T13:43:04.249Z,9.27
2023-04-20T13:45:31.797Z,17.63
2023-04-20T13:47:59.462Z,10.85
2023-04-20T13:50:27.044Z,12.00
2023-04-20T13:52:54.538Z,8.80
2023-04-20T13:55:22.473Z,13.77
2023-04-20T13:57:51.121Z,14.13
2023-04-20T14:00:19.347Z,11.15
2023-04-20T14:02:47.442Z,9.77
2023-04-20T14:05:15.003Z,9.25
2023-04-20T14:07:42.588Z,8.38
2023-04-20T14:10:10.581Z,8.68
2023-04-20T14:12:38.178Z,10.37
2023-04-20T14:15:06.284Z,9.80
2023-04-20T14:17:33.745Z,12.60
2023-04-20T14:20:01.968Z,10.13
2023-04-20T14:22:34.643Z,9.10
2023-04-20T14:25:04.258Z,10.13
2023-04-20T14:27:31.941Z,8.63
2023-04-20T14:29:59.567Z,9.27
2023-04-20T14:32:27.490Z,10.37
2023-04-20T14:34:54.978Z,7.43
2023-04-20T14:37:25.176Z,11.00
2023-04-20T14:39:52.722Z,7.00
2023-04-20T14:42:20.789Z,12.43
2023-04-20T14:44:49.039Z,7.57
2023-04-20T14:47:16.627Z,10.97
2023-04-20T14:49:44.778Z,8.37
2023-04-20T14:52:12.338Z,6.90
2023-04-20T14:54:39.803Z,8.87
2023-04-20T14:57:07.403Z,10.10
2023-04-20T14:59:34.944Z,12.80
2023-04-20T15:02:03.585Z,13.73
2023-04-20T15:04:31.334Z,9.48
2023-04-20T15:06:59.017Z,8.23
2023-04-20T15:09:26.559Z,11.30
2023-04-20T15:11:54.110Z,9.77
2023-04-20T15:14:21.600Z,10.93
2023-04-20T15:16:52.108Z,10.70
2023-04-20T15:19:20.867Z,7.70
2023-04-20T15:21:48.691Z,11.60
2023-04-20T15:24:16.708Z,8.55
2023-04-20T15:26:44.422Z,8.52
2023-04-20T15:29:11.889Z,11.82
2023-04-20T15:31:40.594Z,14.40
2023-04-20T15:34:08.179Z,7.00
2023-04-20T15:36:35.615Z,9.93
2023-04-20T15:39:04.018Z,9.52
2023-04-20T15:41:31.536Z,18.25
2023-04-20T15:43:59.031Z,13.27
2023-04-20T15:46:27.564Z,13.23
2023-04-20T15:48:55.206Z,9.70
2023-04-20T15:51:22.877Z,9.60
2023-04-20T15:53:51.460Z,11.52
2023-04-20T15:56:22.109Z,9.18
2023-04-20T15:58:51.740Z,12.55
2023-04-20T16:01:20.753Z,16.80
2023-04-20T16:03:50.235Z,12.68
2023-04-20T16:06:17.878Z,14.50
2023-04-20T16:08:45.632Z,11.15
2023-04-20T16:11:13.095Z,11.02
2023-04-20T16:13:40.642Z,10.77
2023-04-20T16:16:08.552Z,11.68
2023-04-20T16:18:36.027Z,13.70
2023-04-20T16:21:03.685Z,13.93
2023-04-20T16:23:31.891Z,19.08
2023-04-20T16:25:59.542Z,15.95
2023-04-20T16:28:27.208Z,16.42
2023-04-20T16:30:54.822Z,13.57
2023-04-20T16:33:22.589Z,17.60
2023-04-20T16:35:50.153Z,16.43
2023-04-20T16:38:19.271Z,16.43
2023-04-20T16:40:46.768Z,18.50
2023-04-20T16:43:14.227Z,20.93
2023-04-20T16:45:41.691Z,20.60
2023-04-20T16:48:09.653Z,14.20
2023-04-20T16:50:38.958Z,18.63
2023-04-20T16:53:09.310Z,18.90
2023-04-20T16:55:36.850Z,19.77
2023-04-20T16:58:04.359Z,20.67
2023-04-20T17:00:33.411Z,15.67
2023-04-20T17:03:01.595Z,14.23
2023-04-20T17:05:29.243Z,11.07
2023-04-20T17:07:56.662Z,9.50
2023-04-20T17:10:24.399Z,9.87
2023-04-20T17:12:51.984Z,23.57
2023-04-20T17:15:19.605Z,31.13
2023-04-20T17:17:47.135Z,23.30
2023-04-20T17:20:16.022Z,28.10
2023-04-20T17:22:43.575Z,10.87
2023-04-20T17:25:11.056Z,14.83
2023-04-20T17:27:38.933Z,15.93
2023-04-20T17:30:07.477Z,13.90
2023-04-20T17:32:34.963Z,12.83
2023-04-20T17:35:03.092Z,12.37
2023-04-20T17:37:30.768Z,11.53
2023-04-20T17:39:58.338Z,23.17
2023-04-20T17:42:25.841Z,15.63
2023-04-20T17:44:53.356Z,20.43
2023-04-20T17:47:20.900Z,22.30
2023-04-20T17:49:48.395Z,23.80
2023-04-20T17:52:19.547Z,31.20
2023-04-20T17:54:47.152Z,46.13
2023-04-20T17:57:14.746Z,61.70
2023-04-20T17:59:42.846Z,34.67
2023-04-20T18:02:10.733Z,18.20
2023-04-20T18:04:39.120Z,22.57
2023-04-20T18:07:06.825Z,20.60
2023-04-20T18:09:34.376Z,20.27
2023-04-20T18:12:02.049Z,36.90
2023-04-20T18:14:29.529Z,16.57
2023-04-20T18:16:57.047Z,13.40
2023-04-20T18:19:24.567Z,13.50
2023-04-20T18:21:52.104Z,14.77
2023-04-20T18:24:19.724Z,11.63
2023-04-20T18:26:47.364Z,13.50
2023-04-20T18:29:14.836Z,25.97
2023-04-20T18:31:45.540Z,28.00
2023-04-20T18:34:15.161Z,25.63
2023-04-20T18:36:42.850Z,26.00
2023-04-20T18:39:10.573Z,21.00
2023-04-20T18:41:38.231Z,21.20
2023-04-20T18:44:05.877Z,22.53
2023-04-20T18:46:33.483Z,30.03
2023-04-20T18:49:01.010Z,33.83
2023-04-20T18:51:28.817Z,26.57
2023-04-20T18:53:56.423Z,26.87
2023-04-20T18:56:23.896Z,20.70
2023-04-20T18:58:51.601Z,19.87
2023-04-20T19:01:19.168Z,17.67
2023-04-20T19:03:48.020Z,14.40
2023-04-20T19:06:16.163Z,15.27
2023-04-20T19:08:43.642Z,15.43
2023-04-20T19:14:01.666Z,11.17
2023-04-20T19:16:33.963Z,13.87
2023-04-20T19:19:02.384Z,15.23
2023-04-20T19:21:30.585Z,14.17
2023-04-20T19:23:58.084Z,12.60
2023-04-20T19:26:25.733Z,20.27
2023-04-20T19:28:53.756Z,26.83
2023-04-20T19:31:21.374Z,28.60
2023-04-20T19:33:48.958Z,22.40
2023-04-20T19:36:16.751Z,19.97
2023-04-20T19:38:44.187Z,15.97
2023-04-20T19:41:11.693Z,19.83
2023-04-20T19:43:39.256Z,22.73
2023-04-20T19:46:09.993Z,31.27
2023-04-20T19:48:37.631Z,29.47
2023-04-20T19:51:06.524Z,36.33
2023-04-20T19:53:34.521Z,27.60
2023-04-20T19:56:04.174Z,29.07
2023-04-20T19:58:33.147Z,23.10
2023-04-20T20:01:00.778Z,12.57
2023-04-20T20:03:28.603Z,20.50
2023-04-20T20:05:56.368Z,21.73
2023-04-20T20:08:23.963Z,23.83
2023-04-20T20:10:51.645Z,35.23
2023-04-20T20:13:19.245Z,25.90
2023-04-20T20:15:46.860Z,15.80
2023-04-20T20:18:14.464Z,13.97
2023-04-20T20:20:42.109Z,14.80
2023-04-20T20:23:09.635Z,17.17
2023-04-20T20:25:37.153Z,20.10
2023-04-20T20:28:05.062Z,18.63
2023-04-20T20:30:33.061Z,15.00
2023-04-20T20:33:00.961Z,12.70
2023-04-20T20:35:33.547Z,14.80
2023-04-20T20:38:01.154Z,20.03
2023-04-20T20:40:28.603Z,15.70
2023-04-20T20:42:57.014Z,14.00
2023-04-20T20:45:24.579Z,13.53
2023-04-20T20:47:52.202Z,15.43
2023-04-20T20:50:20.329Z,14.47
2023-04-20T20:52:47.848Z,17.33
2023-04-20T20:55:15.852Z,16.13
2023-04-20T20:57:43.376Z,16.63
2023-04-20T21:00:11.602Z,12.87
2023-04-20T21:02:39.609Z,13.73
2023-04-20T21:05:07.822Z,12.67
2023-04-20T21:07:35.364Z,19.67
2023-04-20T21:10:03.342Z,17.37
2023-04-20T21:12:31.003Z,20.80
2023-04-20T21:14:58.506Z,14.40
2023-04-20T21:17:26.063Z,11.87
2023-04-20T21:19:53.658Z,15.43
2023-04-20T21:22:22.711Z,11.63
2023-04-20T21:24:50.333Z,13.13
2023-04-20T21:27:18.048Z,14.50
2023-04-20T21:29:45.668Z,11.17
2023-04-20T21:32:13.252Z,13.63
2023-04-20T21:34:40.844Z,13.57
2023-04-20T21:37:09.360Z,12.60
2023-04-20T21:39:36.868Z,15.17
2023-04-20T21:42:04.715Z,14.37
2023-04-20T21:44:32.352Z,12.80
2023-04-20T21:47:02.760Z,12.20
2023-04-20T21:49:30.680Z,11.63
2023-04-20T21:51:58.262Z,16.70
2023-04-20T21:54:25.844Z,16.20
2023-04-20T21:56:53.294Z,14.03
2023-04-20T21:59:20.959Z,10.70
2023-04-20T22:01:48.537Z,14.83
2023-04-20T22:04:17.650Z,11.83
2023-04-20T22:06:45.737Z,10.97
2023-04-20T22:09:14.235Z,13.83
2023-04-20T22:11:41.708Z,11.60
2023-04-20T22:14:09.236Z,13.93
2023-04-20T22:16:36.876Z,12.33
2023-04-20T22:19:04.727Z,13.00
2023-04-20T22:21:32.366Z,13.43
2023-04-20T22:24:00.070Z,16.40
2023-04-20T22:26:27.866Z,13.60
2023-04-20T22:28:55.330Z,11.43
2023-04-20T22:31:22.999Z,10.30
2023-04-20T22:33:50.744Z,13.40
2023-04-20T22:36:18.839Z,10.90
2023-04-20T22:38:46.423Z,11.13
2023-04-20T22:41:15.971Z,9.57
2023-04-20T22:43:45.074Z,11.97
2023-04-20T22:46:15.728Z,14.00
2023-04-20T22:48:43.377Z,14.60
2023-04-20T22:51:10.903Z,17.93
2023-04-20T22:53:38.786Z,10.73
2023-04-20T22:56:07.909Z,12.47
2023-04-20T22:58:35.790Z,11.60
2023-04-20T23:01:03.620Z,11.30
2023-04-20T23:03:31.599Z,13.43
2023-04-20T23:05:59.348Z,14.57
2023-04-20T23:08:28.256Z,13.00
2023-04-20T23:10:56.163Z,11.90
2023-04-20T23:13:26.581Z,13.57
2023-04-20T23:15:54.475Z,11.53
2023-04-20T23:18:22.261Z,15.57
2023-04-20T23:20:49.819Z,13.17
2023-04-20T23:23:17.447Z,14.60
2023-04-20T23:25:45.168Z,17.23
2023-04-20T23:28:13.015Z,12.67
2023-04-20T23:30:40.575Z,12.70
2023-04-20T23:33:08.223Z,16.97
2023-04-20T23:35:37.536Z,12.77
2023-04-20T23:38:05.926Z,13.10
2023-04-20T23:40:33.586Z,13.30
2023-04-20T23:43:01.304Z,12.57
2023-04-20T23:45:28.847Z,14.67
2023-04-20T23:47:56.355Z,17.10
2023-04-20T23:50:24.097Z,15.70
2023-04-20T23:52:51.796Z,12.43
2023-04-20T23:55:19.446Z,12.63
2023-04-20T23:57:48.147Z,14.40
